createdAt,value
2023-02-17T00:00:58.917Z,458.00
2023-02-17T00:01:59.959Z,460.00
2023-02-17T00:02:58.871Z,459.00
2023-02-17T00:03:59.080Z,464.00
2023-02-17T00:04:58.858Z,458.00
2023-02-17T00:05:59.108Z,459.00
2023-02-17T00:06:58.818Z,461.00
2023-02-17T00:07:58.955Z,460.00
2023-02-17T00:08:58.797Z,460.00
2023-02-17T00:09:58.878Z,460.00
2023-02-17T00:10:58.794Z,461.00
2023-02-17T00:12:19.788Z,458.00
2023-02-17T00:12:58.746Z,461.00
2023-02-17T00:13:58.848Z,462.00
2023-02-17T00:14:58.793Z,459.00
2023-02-17T00:15:58.877Z,460.00
2023-02-17T00:16:58.686Z,462.00
2023-02-17T00:17:59.837Z,457.00
2023-02-17T00:18:58.687Z,458.00
2023-02-17T00:19:58.750Z,457.00
2023-02-17T00:20:58.649Z,458.00
2023-02-17T00:21:58.734Z,455.00
2023-02-17T00:22:58.633Z,456.00
2023-02-17T00:23:59.755Z,455.00
2023-02-17T00:24:58.593Z,454.00
2023-02-17T00:25:58.755Z,464.00
2023-02-17T00:26:58.563Z,466.00
2023-02-17T00:27:58.744Z,459.00
2023-02-17T00:28:58.617Z,459.00
2023-02-17T00:30:20.857Z,460.00
2023-02-17T00:30:58.617Z,460.00
2023-02-17T00:31:58.713Z,459.00
2023-02-17T00:32:58.493Z,462.00
2023-02-17T00:33:58.662Z,461.00
2023-02-17T00:34:58.458Z,463.00
2023-02-17T00:35:58.667Z,464.00
2023-02-17T00:36:58.440Z,460.00
2023-02-17T00:37:58.466Z,461.00
2023-02-17T00:38:58.406Z,463.00
2023-02-17T00:39:58.570Z,463.00
2023-02-17T00:40:58.386Z,466.00
2023-02-17T00:41:58.435Z,466.00
2023-02-17T00:42:58.367Z,466.00
2023-02-17T00:43:58.478Z,463.00
2023-02-17T00:44:58.333Z,467.00
2023-02-17T00:45:58.538Z,463.00
2023-02-17T00:46:58.314Z,465.00
2023-02-17T00:47:58.346Z,464.00
2023-02-17T00:48:58.281Z,463.00
2023-02-17T00:49:58.379Z,461.00
2023-02-17T00:50:58.255Z,457.00
2023-02-17T00:51:58.366Z,459.00
2023-02-17T00:52:58.226Z,459.00
2023-02-17T00:54:00.449Z,457.00
2023-02-17T00:54:58.205Z,458.00
2023-02-17T00:55:58.426Z,456.00
2023-02-17T00:56:58.173Z,460.00
2023-02-17T00:57:58.277Z,462.00
2023-02-17T00:58:58.145Z,456.00
2023-02-17T00:59:59.295Z,458.00
2023-02-17T01:00:58.137Z,460.00
2023-02-17T01:01:58.286Z,461.00
2023-02-17T01:02:58.102Z,462.00
2023-02-17T01:03:58.292Z,460.00
2023-02-17T01:04:58.111Z,462.00
2023-02-17T01:05:59.091Z,462.00
2023-02-17T01:06:58.054Z,464.00
2023-02-17T01:07:58.093Z,466.00
2023-02-17T01:08:58.049Z,465.00
2023-02-17T01:09:58.184Z,464.00
2023-02-17T01:10:58.005Z,465.00
2023-02-17T01:11:59.204Z,467.00
2023-02-17T01:12:57.974Z,469.00
2023-02-17T01:13:58.113Z,467.00
2023-02-17T01:14:57.950Z,470.00
2023-02-17T01:15:58.025Z,467.00
2023-02-17T01:16:58.041Z,469.00
2023-02-17T01:17:57.972Z,470.00
2023-02-17T01:18:57.886Z,468.00
2023-02-17T01:19:58.015Z,466.00
2023-02-17T01:20:57.876Z,468.00
2023-02-17T01:21:58.010Z,465.00
2023-02-17T01:22:57.849Z,465.00
2023-02-17T01:23:57.881Z,466.00
2023-02-17T01:24:57.810Z,467.00
2023-02-17T01:25:57.924Z,470.00
2023-02-17T01:26:57.795Z,469.00
2023-02-17T01:27:57.910Z,473.00
2023-02-17T01:28:57.760Z,474.00
2023-02-17T01:29:57.899Z,473.00
2023-02-17T01:30:57.791Z,470.00
2023-02-17T01:31:57.991Z,469.00
2023-02-17T01:32:57.714Z,470.00
2023-02-17T01:33:57.814Z,468.00
2023-02-17T01:34:57.684Z,468.00
2023-02-17T01:35:57.797Z,469.00
2023-02-17T01:36:57.665Z,469.00
2023-02-17T01:37:59.827Z,472.00
2023-02-17T01:38:57.654Z,470.00
2023-02-17T01:39:57.824Z,467.00
2023-02-17T01:40:57.622Z,468.00
2023-02-17T01:41:58.730Z,466.00
2023-02-17T01:42:57.575Z,464.00
2023-02-17T01:43:58.654Z,464.00
2023-02-17T01:44:57.554Z,463.00
2023-02-17T01:45:58.649Z,468.00
2023-02-17T01:46:57.558Z,468.00
2023-02-17T01:47:57.603Z,467.00
2023-02-17T01:48:57.501Z,468.00
2023-02-17T01:49:57.646Z,467.00
2023-02-17T01:50:57.481Z,467.00
2023-02-17T01:52:00.790Z,467.00
2023-02-17T01:52:57.441Z,465.00
2023-02-17T01:53:57.523Z,468.00
2023-02-17T01:54:57.431Z,470.00
2023-02-17T01:55:57.546Z,469.00
2023-02-17T01:56:57.403Z,468.00
2023-02-17T01:57:58.560Z,469.00
2023-02-17T01:58:57.426Z,467.00
2023-02-17T01:59:57.535Z,463.00
2023-02-17T02:00:57.337Z,467.00
2023-02-17T02:01:58.578Z,467.00
2023-02-17T02:02:57.415Z,466.00
2023-02-17T02:03:57.448Z,468.00
2023-02-17T02:04:57.295Z,464.00
2023-02-17T02:06:18.419Z,464.00
2023-02-17T02:06:57.268Z,463.00
2023-02-17T02:07:57.375Z,464.00
2023-02-17T02:08:57.242Z,460.00
2023-02-17T02:09:57.453Z,463.00
2023-02-17T02:10:57.217Z,464.00
2023-02-17T02:11:57.325Z,464.00
2023-02-17T02:12:57.227Z,463.00
2023-02-17T02:13:57.402Z,462.00
2023-02-17T02:14:57.169Z,463.00
2023-02-17T02:15:57.347Z,463.00
2023-02-17T02:16:57.150Z,464.00
2023-02-17T02:17:57.268Z,464.00
2023-02-17T02:18:57.122Z,465.00
2023-02-17T02:19:57.178Z,467.00
2023-02-17T02:20:57.092Z,464.00
2023-02-17T02:22:00.436Z,459.00
2023-02-17T02:22:57.059Z,462.00
2023-02-17T02:23:57.150Z,464.00
2023-02-17T02:24:57.037Z,465.00
2023-02-17T02:25:57.178Z,465.00
2023-02-17T02:26:57.008Z,467.00
2023-02-17T02:27:59.219Z,470.00
2023-02-17T02:28:56.985Z,470.00
2023-02-17T02:29:57.076Z,470.00
2023-02-17T02:30:56.972Z,468.00
2023-02-17T02:31:57.123Z,473.00
2023-02-17T02:32:56.934Z,474.00
2023-02-17T02:34:00.251Z,474.00
2023-02-17T02:34:56.897Z,475.00
2023-02-17T02:35:57.062Z,474.00
2023-02-17T02:36:56.877Z,470.00
2023-02-17T02:37:56.996Z,471.00
2023-02-17T02:38:56.850Z,472.00
2023-02-17T02:39:56.988Z,469.00
2023-02-17T02:40:56.827Z,470.00
2023-02-17T02:41:56.981Z,471.00
2023-02-17T02:42:56.847Z,472.00
2023-02-17T02:43:56.903Z,471.00
2023-02-17T02:44:56.776Z,473.00
2023-02-17T02:45:57.017Z,472.00
2023-02-17T02:46:56.747Z,468.00
2023-02-17T02:47:56.874Z,468.00
2023-02-17T02:48:56.754Z,469.00
2023-02-17T02:49:57.825Z,472.00
2023-02-17T02:50:56.696Z,472.00
2023-02-17T02:51:56.794Z,470.00
2023-02-17T02:52:56.700Z,468.00
2023-02-17T02:53:56.792Z,467.00
2023-02-17T02:54:56.645Z,467.00
2023-02-17T02:55:56.816Z,465.00
2023-02-17T02:56:56.634Z,469.00
2023-02-17T02:57:57.721Z,470.00
2023-02-17T02:58:56.584Z,469.00
2023-02-17T02:59:56.674Z,470.00
2023-02-17T03:00:56.582Z,471.00
2023-02-17T03:01:56.713Z,470.00
2023-02-17T03:02:56.561Z,467.00
2023-02-17T03:03:56.735Z,465.00
2023-02-17T03:04:56.511Z,467.00
2023-02-17T03:05:56.594Z,467.00
2023-02-17T03:06:56.482Z,467.00
2023-02-17T03:07:56.632Z,466.00
2023-02-17T03:08:56.465Z,467.00
2023-02-17T03:09:56.625Z,470.00
2023-02-17T03:10:56.433Z,466.00
2023-02-17T03:11:56.613Z,468.00
2023-02-17T03:12:56.409Z,465.00
2023-02-17T03:13:56.532Z,466.00
2023-02-17T03:14:56.380Z,464.00
2023-02-17T03:15:56.510Z,466.00
2023-02-17T03:16:56.360Z,466.00
2023-02-17T03:17:56.497Z,466.00
2023-02-17T03:18:56.321Z,466.00
2023-02-17T03:19:57.449Z,468.00
2023-02-17T03:20:56.323Z,467.00
2023-02-17T03:21:56.410Z,466.00
2023-02-17T03:22:56.276Z,462.00
2023-02-17T03:23:56.403Z,465.00
2023-02-17T03:24:56.266Z,463.00
2023-02-17T03:26:17.309Z,461.00
2023-02-17T03:26:56.218Z,462.00
2023-02-17T03:27:56.319Z,463.00
2023-02-17T03:28:56.210Z,464.00
2023-02-17T03:29:56.336Z,465.00
2023-02-17T03:30:56.171Z,464.00
2023-02-17T03:31:57.468Z,464.00
2023-02-17T03:32:56.162Z,461.00
2023-02-17T03:33:56.217Z,462.00
2023-02-17T03:34:56.118Z,463.00
2023-02-17T03:35:56.236Z,463.00
2023-02-17T03:36:56.088Z,464.00
2023-02-17T03:37:57.172Z,462.00
2023-02-17T03:38:56.066Z,462.00
2023-02-17T03:39:56.235Z,464.00
2023-02-17T03:40:56.045Z,463.00
2023-02-17T03:41:56.217Z,466.00
2023-02-17T03:42:56.018Z,468.00
2023-02-17T03:43:56.046Z,469.00
2023-02-17T03:44:55.989Z,471.00
2023-02-17T03:45:56.158Z,468.00
2023-02-17T03:46:55.967Z,465.00
2023-02-17T03:47:56.123Z,467.00
2023-02-17T03:48:55.936Z,464.00
2023-02-17T03:49:56.053Z,461.00
2023-02-17T03:50:55.920Z,462.00
2023-02-17T03:51:56.043Z,465.00
2023-02-17T03:52:55.885Z,465.00
2023-02-17T03:53:56.025Z,466.00
2023-02-17T03:54:55.871Z,464.00
2023-02-17T03:55:55.961Z,465.00
2023-02-17T03:56:55.834Z,467.00
2023-02-17T03:57:55.950Z,469.00
2023-02-17T03:58:55.800Z,468.00
2023-02-17T03:59:56.952Z,469.00
2023-02-17T04:00:55.780Z,469.00
2023-02-17T04:01:55.872Z,473.00
2023-02-17T04:02:55.750Z,473.00
2023-02-17T04:03:55.885Z,471.00
2023-02-17T04:04:55.725Z,473.00
2023-02-17T04:05:57.930Z,473.00
2023-02-17T04:06:55.706Z,475.00
2023-02-17T04:07:55.868Z,469.00
2023-02-17T04:08:55.678Z,468.00
2023-02-17T04:09:55.857Z,468.00
2023-02-17T04:10:55.651Z,471.00
2023-02-17T04:12:16.725Z,465.00
2023-02-17T04:12:55.626Z,461.00
2023-02-17T04:13:55.712Z,457.00
2023-02-17T04:14:55.597Z,459.00
2023-02-17T04:15:55.805Z,460.00
2023-02-17T04:16:55.608Z,459.00
2023-02-17T04:17:56.679Z,459.00
2023-02-17T04:18:55.537Z,457.00
2023-02-17T04:19:56.605Z,458.00
2023-02-17T04:20:55.523Z,458.00
2023-02-17T04:21:58.844Z,459.00
2023-02-17T04:22:55.498Z,460.00
2023-02-17T04:23:55.544Z,460.00
2023-02-17T04:24:55.455Z,461.00
2023-02-17T04:25:55.586Z,461.00
2023-02-17T04:26:55.434Z,459.00
2023-02-17T04:27:55.572Z,460.00
2023-02-17T04:28:55.410Z,461.00
2023-02-17T04:29:55.496Z,460.00
2023-02-17T04:30:55.455Z,458.00
2023-02-17T04:31:55.642Z,457.00
2023-02-17T04:32:55.376Z,458.00
2023-02-17T04:33:56.498Z,464.00
2023-02-17T04:34:55.329Z,470.00
2023-02-17T04:36:16.442Z,467.00
2023-02-17T04:36:55.338Z,464.00
2023-02-17T04:37:55.502Z,463.00
2023-02-17T04:38:55.331Z,460.00
2023-02-17T04:39:58.564Z,460.00
2023-02-17T04:40:55.264Z,464.00
2023-02-17T04:41:55.370Z,460.00
2023-02-17T04:42:55.244Z,464.00
2023-02-17T04:43:55.300Z,465.00
2023-02-17T04:44:55.223Z,464.00
2023-02-17T04:45:55.420Z,467.00
2023-02-17T04:46:55.171Z,466.00
2023-02-17T04:47:55.268Z,464.00
2023-02-17T04:48:55.172Z,458.00
2023-02-17T04:49:55.212Z,453.00
2023-02-17T04:50:55.143Z,454.00
2023-02-17T04:51:56.268Z,456.00
2023-02-17T04:52:55.089Z,457.00
2023-02-17T04:53:55.179Z,457.00
2023-02-17T04:54:55.066Z,459.00
2023-02-17T04:56:16.240Z,466.00
2023-02-17T04:56:55.045Z,465.00
2023-02-17T04:57:55.417Z,467.00
2023-02-17T04:58:55.158Z,468.00
2023-02-17T04:59:55.094Z,464.00
2023-02-17T05:00:54.985Z,465.00
2023-02-17T05:01:56.088Z,464.00
2023-02-17T05:02:54.994Z,464.00
2023-02-17T05:03:55.056Z,463.00
2023-02-17T05:04:55.019Z,466.00
2023-02-17T05:05:54.989Z,467.00
2023-02-17T05:06:54.907Z,467.00
2023-02-17T05:07:54.977Z,465.00
2023-02-17T05:08:54.873Z,464.00
2023-02-17T05:09:54.956Z,464.00
2023-02-17T05:10:54.859Z,461.00
2023-02-17T05:11:54.996Z,460.00
2023-02-17T05:12:54.837Z,460.00
2023-02-17T05:13:54.984Z,459.00
2023-02-17T05:14:54.805Z,460.00
2023-02-17T05:15:54.892Z,459.00
2023-02-17T05:16:54.783Z,454.00
2023-02-17T05:17:54.764Z,456.00
2023-02-17T05:18:54.746Z,456.00
2023-02-17T05:19:55.912Z,456.00
2023-02-17T05:20:54.735Z,459.00
2023-02-17T05:21:56.867Z,460.00
2023-02-17T05:22:54.709Z,460.00
2023-02-17T05:23:54.803Z,461.00
2023-02-17T05:24:54.671Z,458.00
2023-02-17T05:25:54.797Z,461.00
2023-02-17T05:26:54.643Z,459.00
2023-02-17T05:27:55.713Z,459.00
2023-02-17T05:28:54.614Z,458.00
2023-02-17T05:29:54.735Z,459.00
2023-02-17T05:30:54.611Z,459.00
2023-02-17T05:31:54.815Z,461.00
2023-02-17T05:32:54.609Z,459.00
2023-02-17T05:33:54.587Z,460.00
2023-02-17T05:34:54.532Z,462.00
2023-02-17T05:35:54.621Z,461.00
2023-02-17T05:36:54.520Z,464.00
2023-02-17T05:37:57.883Z,466.00
2023-02-17T05:38:54.492Z,465.00
2023-02-17T05:39:54.595Z,466.00
2023-02-17T05:40:54.452Z,464.00
2023-02-17T05:41:56.638Z,460.00
2023-02-17T05:42:54.432Z,461.00
2023-02-17T05:43:57.696Z,458.00
2023-02-17T05:44:54.413Z,456.00
2023-02-17T05:45:54.491Z,456.00
2023-02-17T05:46:54.404Z,454.00
2023-02-17T05:47:54.532Z,455.00
2023-02-17T05:48:54.353Z,453.00
2023-02-17T05:49:57.691Z,454.00
2023-02-17T05:50:54.322Z,455.00
2023-02-17T05:51:54.502Z,459.00
2023-02-17T05:52:54.303Z,459.00
2023-02-17T05:53:54.341Z,461.00
2023-02-17T05:54:54.297Z,461.00
2023-02-17T05:56:15.355Z,461.00
2023-02-17T05:56:54.276Z,461.00
2023-02-17T05:57:54.410Z,460.00
2023-02-17T05:58:54.233Z,460.00
2023-02-17T05:59:54.359Z,461.00
2023-02-17T06:00:54.212Z,462.00
2023-02-17T06:01:56.270Z,462.00
2023-02-17T06:02:54.192Z,459.00
2023-02-17T06:03:54.221Z,459.00
2023-02-17T06:04:54.343Z,459.00
2023-02-17T06:05:54.275Z,462.00
2023-02-17T06:06:54.155Z,463.00
2023-02-17T06:07:55.204Z,465.00
2023-02-17T06:08:54.129Z,466.00
2023-02-17T06:09:54.228Z,463.00
2023-02-17T06:10:54.055Z,464.00
2023-02-17T06:11:54.152Z,462.00
2023-02-17T06:12:54.062Z,462.00
2023-02-17T06:13:54.092Z,462.00
2023-02-17T06:14:54.011Z,466.00
2023-02-17T06:16:15.148Z,467.00
2023-02-17T06:16:53.989Z,467.00
2023-02-17T06:17:54.163Z,467.00
2023-02-17T06:18:53.978Z,468.00
2023-02-17T06:19:54.011Z,470.00
2023-02-17T06:20:53.941Z,469.00
2023-02-17T06:21:54.033Z,469.00
2023-02-17T06:22:53.902Z,470.00
2023-02-17T06:23:53.973Z,469.00
2023-02-17T06:24:53.911Z,473.00
2023-02-17T06:25:54.008Z,470.00
2023-02-17T06:26:53.860Z,469.00
2023-02-17T06:27:54.067Z,469.00
2023-02-17T06:28:53.831Z,467.00
2023-02-17T06:29:53.867Z,468.00
2023-02-17T06:30:53.839Z,472.00
2023-02-17T06:31:53.962Z,473.00
2023-02-17T06:32:53.783Z,474.00
2023-02-17T06:33:53.845Z,469.00
2023-02-17T06:34:53.758Z,469.00
2023-02-17T06:35:53.883Z,470.00
2023-02-17T06:36:53.765Z,472.00
2023-02-17T06:37:54.926Z,473.00
2023-02-17T06:38:53.697Z,471.00
2023-02-17T06:39:53.750Z,470.00
2023-02-17T06:40:53.664Z,470.00
2023-02-17T06:41:53.796Z,466.00
2023-02-17T06:42:53.665Z,467.00
2023-02-17T06:43:53.722Z,467.00
2023-02-17T06:44:53.621Z,473.00
2023-02-17T06:45:53.789Z,471.00
2023-02-17T06:46:53.586Z,468.00
2023-02-17T06:47:53.688Z,469.00
2023-02-17T06:48:53.584Z,471.00
2023-02-17T06:49:53.622Z,470.00
2023-02-17T06:50:53.544Z,472.00
2023-02-17T06:51:53.666Z,472.00
2023-02-17T06:52:53.503Z,472.00
2023-02-17T06:53:53.591Z,472.00
2023-02-17T06:54:53.499Z,473.00
2023-02-17T06:56:14.631Z,471.00
2023-02-17T06:56:53.460Z,473.00
2023-02-17T06:57:53.560Z,471.00
2023-02-17T06:58:53.442Z,466.00
2023-02-17T06:59:53.502Z,467.00
2023-02-17T07:00:53.434Z,465.00
2023-02-17T07:01:54.647Z,464.00
2023-02-17T07:02:53.454Z,465.00
2023-02-17T07:03:53.473Z,465.00
2023-02-17T07:04:53.358Z,466.00
2023-02-17T07:05:53.409Z,467.00
2023-02-17T07:06:53.344Z,466.00
2023-02-17T07:07:54.369Z,467.00
2023-02-17T07:08:53.310Z,467.00
2023-02-17T07:09:53.381Z,467.00
2023-02-17T07:10:53.278Z,469.00
2023-02-17T07:11:53.414Z,466.00
2023-02-17T07:12:53.279Z,466.00
2023-02-17T07:13:53.361Z,464.00
2023-02-17T07:14:53.223Z,465.00
2023-02-17T07:15:53.300Z,465.00
2023-02-17T07:16:53.194Z,462.00
2023-02-17T07:17:53.322Z,462.00
2023-02-17T07:18:53.189Z,460.00
2023-02-17T07:21:02.543Z,519.00
2023-02-17T07:22:02.446Z,448.00
2023-02-17T07:23:02.471Z,448.00
2023-02-17T07:24:02.726Z,446.00
2023-02-17T07:25:04.623Z,448.00
2023-02-17T07:26:02.403Z,450.00
2023-02-17T07:27:02.538Z,448.00
2023-02-17T07:28:02.364Z,443.00
2023-02-17T07:29:02.503Z,448.00
2023-02-17T07:30:02.375Z,449.00
2023-02-17T07:31:02.463Z,449.00
2023-02-17T07:32:02.557Z,450.00
2023-02-17T07:33:02.358Z,449.00
2023-02-17T07:34:02.274Z,451.00
2023-02-17T07:35:02.383Z,451.00
2023-02-17T07:36:02.264Z,449.00
2023-02-17T07:37:02.420Z,454.00
2023-02-17T07:38:02.216Z,453.00
2023-02-17T07:39:02.243Z,454.00
2023-02-17T07:40:02.196Z,454.00
2023-02-17T07:41:02.295Z,452.00
2023-02-17T07:42:02.177Z,449.00
2023-02-17T07:43:02.220Z,449.00
2023-02-17T07:44:02.144Z,447.00
2023-02-17T07:45:02.258Z,452.00
2023-02-17T07:46:02.145Z,454.00
2023-02-17T07:47:02.308Z,456.00
2023-02-17T07:48:02.110Z,457.00
2023-02-17T07:49:02.137Z,457.00
2023-02-17T07:50:02.055Z,456.00
2023-02-17T07:51:02.168Z,453.00
2023-02-17T07:52:04.866Z,453.00
2023-02-17T07:53:02.101Z,452.00
2023-02-17T07:54:02.056Z,451.00
2023-02-17T07:55:03.171Z,450.00
2023-02-17T07:56:01.980Z,452.00
2023-02-17T07:57:02.229Z,451.00
2023-02-17T07:58:01.951Z,452.00
2023-02-17T07:59:02.229Z,447.00
2023-02-17T08:00:01.945Z,446.00
2023-02-17T08:01:03.065Z,447.00
2023-02-17T08:02:01.921Z,444.00
2023-02-17T08:03:03.017Z,445.00
2023-02-17T08:04:01.866Z,446.00
2023-02-17T08:05:02.016Z,446.00
2023-02-17T08:06:01.889Z,444.00
2023-02-17T08:07:01.966Z,445.00
2023-02-17T08:08:01.817Z,446.00
2023-02-17T08:09:02.002Z,446.00
2023-02-17T08:10:01.795Z,445.00
2023-02-17T08:11:01.942Z,443.00
2023-02-17T08:12:01.781Z,443.00
2023-02-17T08:13:01.858Z,443.00
2023-02-17T08:14:01.737Z,446.00
2023-02-17T08:15:01.885Z,448.00
2023-02-17T08:16:01.703Z,448.00
2023-02-17T08:17:01.923Z,446.00
2023-02-17T08:18:01.714Z,446.00
2023-02-17T08:19:01.753Z,445.00
2023-02-17T08:20:07.936Z,448.00
2023-02-17T08:21:02.650Z,448.00
2023-02-17T08:22:01.766Z,450.00
2023-02-17T08:23:01.641Z,453.00
2023-02-17T08:24:01.754Z,452.00
2023-02-17T08:25:01.592Z,447.00
2023-02-17T08:26:04.013Z,448.00
2023-02-17T08:27:01.568Z,449.00
2023-02-17T08:28:01.843Z,447.00
2023-02-17T08:29:01.553Z,449.00
2023-02-17T08:30:02.741Z,449.00
2023-02-17T08:31:01.611Z,448.00
2023-02-17T08:32:01.804Z,450.00
2023-02-17T08:33:01.486Z,450.00
2023-02-17T08:34:01.570Z,449.00
2023-02-17T08:35:01.483Z,450.00
2023-02-17T08:36:01.654Z,450.00
2023-02-17T08:37:01.437Z,447.00
2023-02-17T08:38:01.532Z,443.00
2023-02-17T08:39:01.407Z,441.00
2023-02-17T08:40:01.493Z,439.00
2023-02-17T08:41:01.393Z,435.00
2023-02-17T08:42:02.518Z,431.00
2023-02-17T08:43:03.494Z,428.00
2023-02-17T08:44:01.560Z,433.00
2023-02-17T08:45:01.336Z,436.00
2023-02-17T08:46:01.697Z,435.00
2023-02-17T08:47:01.372Z,434.00
2023-02-17T08:48:01.399Z,431.00
2023-02-17T08:49:01.290Z,429.00
2023-02-17T08:50:01.365Z,428.00
2023-02-17T08:51:01.251Z,427.00
2023-02-17T08:52:01.430Z,427.00
2023-02-17T08:53:01.252Z,427.00
2023-02-17T08:54:05.591Z,427.00
2023-02-17T08:55:01.204Z,426.00
2023-02-17T08:56:03.417Z,427.00
2023-02-17T08:57:01.170Z,430.00
2023-02-17T08:58:01.328Z,432.00
2023-02-17T08:59:01.619Z,433.00
2023-02-17T09:00:05.484Z,431.00
2023-02-17T09:01:01.124Z,435.00
2023-02-17T09:02:01.282Z,433.00
2023-02-17T09:03:01.082Z,432.00
2023-02-17T09:04:01.268Z,435.00
2023-02-17T09:05:01.108Z,434.00
2023-02-17T09:06:01.354Z,433.00
2023-02-17T09:07:01.049Z,433.00
2023-02-17T09:08:01.099Z,432.00
2023-02-17T09:09:01.010Z,430.00
2023-02-17T09:10:01.121Z,431.00
2023-02-17T09:11:01.019Z,429.00
2023-02-17T09:12:01.109Z,425.00
2023-02-17T09:13:00.966Z,430.00
2023-02-17T09:14:01.090Z,429.00
2023-02-17T09:15:00.918Z,431.00
2023-02-17T09:16:01.084Z,430.00
2023-02-17T09:17:00.941Z,428.00
2023-02-17T09:18:04.198Z,427.00
2023-02-17T09:19:00.878Z,426.00
2023-02-17T09:20:00.990Z,428.00
2023-02-17T09:21:00.877Z,429.00
2023-02-17T09:22:01.030Z,429.00
2023-02-17T09:23:00.859Z,429.00
2023-02-17T09:24:01.043Z,430.00
2023-02-17T09:25:00.829Z,432.00
2023-02-17T09:26:00.901Z,434.00
2023-02-17T09:27:00.831Z,435.00
2023-02-17T09:28:00.840Z,434.00
2023-02-17T09:29:00.752Z,431.00
2023-02-17T09:30:01.892Z,431.00
2023-02-17T09:31:00.738Z,435.00
2023-02-17T09:32:01.075Z,434.00
2023-02-17T09:33:00.698Z,432.00
2023-02-17T09:34:00.853Z,432.00
2023-02-17T09:35:00.671Z,435.00
2023-02-17T09:36:00.731Z,437.00
2023-02-17T09:37:00.719Z,438.00
2023-02-17T09:38:00.727Z,437.00
2023-02-17T09:39:00.625Z,434.00
2023-02-17T09:40:21.719Z,435.00
2023-02-17T09:41:00.589Z,433.00
2023-02-17T09:42:00.743Z,433.00
2023-02-17T09:43:00.564Z,434.00
2023-02-17T09:44:00.669Z,434.00
2023-02-17T09:45:00.547Z,435.00
2023-02-17T09:46:00.702Z,435.00
2023-02-17T09:47:02.488Z,434.00
2023-02-17T09:48:03.804Z,435.00
2023-02-17T09:49:00.576Z,433.00
2023-02-17T09:50:00.623Z,431.00
2023-02-17T09:51:00.498Z,430.00
2023-02-17T09:52:00.622Z,426.00
2023-02-17T09:53:00.420Z,432.00
2023-02-17T09:54:00.686Z,430.00
2023-02-17T09:55:00.389Z,429.00
2023-02-17T09:56:00.531Z,428.00
2023-02-17T09:57:00.390Z,429.00
2023-02-17T09:58:00.519Z,426.00
2023-02-17T09:59:00.340Z,426.00
2023-02-17T10:00:00.550Z,429.00
2023-02-17T10:01:00.421Z,429.00
2023-02-17T10:02:00.318Z,425.00
2023-02-17T10:03:00.433Z,424.00
2023-02-17T10:04:00.441Z,421.00
2023-02-17T10:05:00.338Z,422.00
2023-02-17T10:06:00.415Z,424.00
2023-02-17T10:07:00.237Z,423.00
2023-02-17T10:08:00.372Z,421.00
2023-02-17T10:09:00.214Z,418.00
2023-02-17T10:10:00.381Z,419.00
2023-02-17T10:11:00.186Z,422.00
2023-02-17T10:12:01.337Z,421.00
2023-02-17T10:13:00.156Z,419.00
2023-02-17T10:14:00.253Z,421.00
2023-02-17T10:15:00.135Z,420.00
2023-02-17T10:16:00.350Z,421.00
2023-02-17T10:17:00.176Z,415.00
2023-02-17T10:18:01.291Z,417.00
2023-02-17T10:19:00.115Z,417.00
2023-02-17T10:20:00.192Z,418.00
2023-02-17T10:21:00.113Z,415.00
2023-02-17T10:22:01.114Z,415.00
2023-02-17T10:23:00.020Z,418.00
2023-02-17T10:24:02.192Z,419.00
2023-02-17T10:25:00.004Z,426.00
2023-02-17T10:26:22.173Z,423.00
2023-02-17T10:27:00.026Z,423.00
2023-02-17T10:28:00.141Z,418.00
2023-02-17T10:28:59.935Z,415.00
2023-02-17T10:30:00.111Z,421.00
2023-02-17T10:30:59.977Z,419.00
2023-02-17T10:32:00.217Z,418.00
2023-02-17T10:32:59.885Z,418.00
2023-02-17T10:34:01.063Z,416.00
2023-02-17T10:34:59.886Z,416.00
2023-02-17T10:35:59.992Z,416.00
2023-02-17T10:36:59.850Z,417.00
2023-02-17T10:38:00.041Z,415.00
2023-02-17T10:38:59.808Z,415.00
2023-02-17T10:40:01.893Z,412.00
2023-02-17T10:41:03.824Z,418.00
2023-02-17T10:41:59.803Z,417.00
2023-02-17T10:43:00.095Z,415.00
2023-02-17T10:43:59.743Z,415.00
2023-02-17T10:45:00.879Z,416.00
2023-02-17T10:45:59.715Z,419.00
2023-02-17T10:46:59.806Z,415.00
2023-02-17T10:47:59.764Z,414.00
2023-02-17T10:48:59.808Z,415.00
2023-02-17T10:49:59.664Z,415.00
2023-02-17T10:50:59.967Z,419.00
2023-02-17T10:51:59.729Z,416.00
2023-02-17T10:52:59.717Z,418.00
2023-02-17T10:53:59.666Z,422.00
2023-02-17T10:54:59.715Z,420.00
2023-02-17T10:55:59.582Z,420.00
2023-02-17T10:57:20.740Z,420.00
2023-02-17T10:57:59.570Z,418.00
2023-02-17T10:58:59.680Z,421.00
2023-02-17T10:59:59.570Z,425.00
2023-02-17T11:00:59.777Z,423.00
2023-02-17T11:01:59.517Z,424.00
2023-02-17T11:02:59.558Z,419.00
2023-02-17T11:03:59.520Z,419.00
2023-02-17T11:04:59.591Z,420.00
2023-02-17T11:05:59.502Z,424.00
2023-02-17T11:06:59.539Z,424.00
2023-02-17T11:07:59.430Z,426.00
2023-02-17T11:08:59.565Z,426.00
2023-02-17T11:09:59.393Z,423.00
2023-02-17T11:10:59.494Z,424.00
2023-02-17T11:11:59.376Z,426.00
2023-02-17T11:13:00.463Z,426.00
2023-02-17T11:14:00.307Z,424.00
2023-02-17T11:14:59.571Z,423.00
2023-02-17T11:15:59.368Z,424.00
2023-02-17T11:17:00.435Z,424.00
2023-02-17T11:17:59.303Z,423.00
2023-02-17T11:18:59.443Z,426.00
2023-02-17T11:19:59.272Z,424.00
2023-02-17T11:20:59.381Z,423.00
2023-02-17T11:21:59.256Z,426.00
2023-02-17T11:22:59.343Z,424.00
2023-02-17T11:23:59.290Z,425.00
2023-02-17T11:25:00.416Z,421.00
2023-02-17T11:25:59.201Z,422.00
2023-02-17T11:26:59.280Z,424.00
2023-02-17T11:27:59.193Z,418.00
2023-02-17T11:28:59.353Z,422.00
2023-02-17T11:29:59.181Z,422.00
2023-02-17T11:30:59.266Z,420.00
2023-02-17T11:31:59.274Z,421.00
2023-02-17T11:33:00.213Z,423.00
2023-02-17T11:33:59.087Z,420.00
2023-02-17T11:34:59.224Z,418.00
2023-02-17T11:35:59.073Z,417.00
2023-02-17T11:36:59.166Z,419.00
2023-02-17T11:37:59.026Z,422.00
2023-02-17T11:38:59.084Z,421.00
2023-02-17T11:39:59.003Z,422.00
2023-02-17T11:40:59.026Z,423.00
2023-02-17T11:41:59.000Z,423.00
2023-02-17T11:43:01.168Z,423.00
2023-02-17T11:43:58.946Z,423.00
2023-02-17T11:44:59.101Z,424.00
2023-02-17T11:46:00.826Z,422.00
2023-02-17T11:46:59.036Z,419.00
2023-02-17T11:47:58.917Z,417.00
2023-02-17T11:49:19.956Z,418.00
2023-02-17T11:49:58.869Z,419.00
2023-02-17T11:50:58.864Z,425.00
2023-02-17T11:51:58.985Z,420.00
2023-02-17T11:52:58.826Z,415.00
2023-02-17T11:53:58.955Z,414.00
2023-02-17T11:54:58.831Z,410.00
2023-02-17T11:55:58.945Z,406.00
2023-02-17T11:56:58.798Z,407.00
2023-02-17T11:57:58.882Z,407.00
2023-02-17T11:58:58.750Z,407.00
2023-02-17T12:00:00.951Z,409.00
2023-02-17T12:00:58.712Z,408.00
2023-02-17T12:01:58.748Z,406.00
2023-02-17T12:02:58.699Z,406.00
2023-02-17T12:03:58.779Z,405.00
2023-02-17T12:04:58.663Z,403.00
2023-02-17T12:06:02.053Z,400.00
2023-02-17T12:06:59.230Z,396.00
2023-02-17T12:07:58.749Z,398.00
2023-02-17T12:08:58.642Z,396.00
2023-02-17T12:09:58.627Z,396.00
2023-02-17T12:10:58.772Z,397.00
2023-02-17T12:11:58.609Z,396.00
2023-02-17T12:12:58.718Z,403.00
2023-02-17T12:13:58.662Z,402.00
2023-02-17T12:14:58.754Z,398.00
2023-02-17T12:15:58.519Z,396.00
2023-02-17T12:16:58.581Z,399.00
2023-02-17T12:17:58.529Z,398.00
2023-02-17T12:18:58.590Z,401.00
2023-02-17T12:19:58.469Z,398.00
2023-02-17T12:20:58.528Z,397.00
2023-02-17T12:21:58.440Z,398.00
2023-02-17T12:22:59.590Z,400.00
2023-02-17T12:23:58.441Z,401.00
2023-02-17T12:24:58.501Z,398.00
2023-02-17T12:25:58.378Z,399.00
2023-02-17T12:26:58.445Z,403.00
2023-02-17T12:27:58.369Z,404.00
2023-02-17T12:28:58.468Z,404.00
2023-02-17T12:29:58.395Z,402.00